createdAt,value
2022-11-24T00:01:31.483Z,77.44
2022-11-24T00:04:05.996Z,77.42
2022-11-24T00:06:36.290Z,77.58
2022-11-24T00:09:05.553Z,75.54
2022-11-24T00:11:36.331Z,74.60
2022-11-24T00:14:06.506Z,74.78
2022-11-24T00:16:37.777Z,75.03
2022-11-24T00:19:09.657Z,74.16
2022-11-24T00:21:38.723Z,74.04
2022-11-24T00:24:06.794Z,74.04
2022-11-24T00:26:37.581Z,73.99
2022-11-24T00:29:07.927Z,73.38
2022-11-24T00:31:41.816Z,73.83
2022-11-24T00:34:14.521Z,73.21
2022-11-24T00:36:42.767Z,73.15
2022-11-24T00:39:15.811Z,72.07
2022-11-24T00:41:43.776Z,71.63
2022-11-24T00:44:11.120Z,71.51
2022-11-24T00:46:38.620Z,73.01
2022-11-24T00:49:06.223Z,72.41
2022-11-24T00:51:33.718Z,72.99
2022-11-24T00:54:02.321Z,72.73
2022-11-24T00:56:30.274Z,72.96
2022-11-24T00:58:58.323Z,73.63
2022-11-24T01:01:30.997Z,72.77
2022-11-24T01:04:03.664Z,72.79
2022-11-24T01:06:32.798Z,73.62
2022-11-24T01:09:00.465Z,73.48
2022-11-24T01:11:52.426Z,73.38
2022-11-24T01:14:23.429Z,73.38
2022-11-24T01:16:50.762Z,73.55
2022-11-24T01:19:18.770Z,72.74
2022-11-24T01:21:46.705Z,72.56
2022-11-24T01:24:15.018Z,72.27
2022-11-24T01:26:42.805Z,71.79
2022-11-24T01:29:12.223Z,73.67
2022-11-24T01:31:40.065Z,71.99
2022-11-24T01:34:07.705Z,72.08
2022-11-24T01:36:35.139Z,72.83
2022-11-24T01:39:02.631Z,73.64
2022-11-24T01:41:30.087Z,71.93
2022-11-24T01:43:58.090Z,72.61
2022-11-24T01:46:43.931Z,72.72
2022-11-24T01:49:22.700Z,72.48
2022-11-24T01:52:05.783Z,71.95
2022-11-24T01:54:45.465Z,71.58
2022-11-24T01:57:33.590Z,72.01
2022-11-24T02:00:11.071Z,71.51
2022-11-24T02:02:38.480Z,69.84
2022-11-24T02:05:49.191Z,69.33
2022-11-24T02:08:34.370Z,70.18
2022-11-24T02:11:04.252Z,71.10
2022-11-24T02:13:37.935Z,71.27
2022-11-24T02:16:10.221Z,70.64
2022-11-24T02:18:39.977Z,70.85
2022-11-24T02:21:09.154Z,71.28
2022-11-24T02:23:54.774Z,70.89
2022-11-24T02:26:44.006Z,70.48
2022-11-24T02:29:14.306Z,71.43
2022-11-24T02:32:00.307Z,70.10
2022-11-24T02:34:27.684Z,70.49
2022-11-24T02:36:55.040Z,69.71
2022-11-24T02:39:23.012Z,68.63
2022-11-24T02:42:03.238Z,69.47
2022-11-24T02:44:48.952Z,69.13
2022-11-24T02:47:20.490Z,69.31
2022-11-24T02:49:51.260Z,68.99
2022-11-24T02:52:19.122Z,69.34
2022-11-24T02:54:46.767Z,68.36
2022-11-24T02:57:15.299Z,67.78
2022-11-24T02:59:43.116Z,67.27
2022-11-24T03:02:10.671Z,67.22
2022-11-24T03:04:39.677Z,67.44
2022-11-24T03:07:10.136Z,67.39
2022-11-24T03:09:38.145Z,67.43
2022-11-24T03:12:08.341Z,67.47
2022-11-24T03:14:37.505Z,68.13
2022-11-24T03:17:05.656Z,67.77
2022-11-24T03:19:33.243Z,69.35
2022-11-24T03:22:00.830Z,69.73
2022-11-24T03:24:28.993Z,70.12
2022-11-24T03:26:56.588Z,70.07
2022-11-24T03:29:24.201Z,70.87
2022-11-24T03:31:51.564Z,70.30
2022-11-24T03:34:18.998Z,71.95
2022-11-24T03:36:46.383Z,70.76
2022-11-24T03:39:13.804Z,71.50
2022-11-24T03:41:45.301Z,71.96
2022-11-24T03:44:17.903Z,72.41
2022-11-24T03:46:51.941Z,70.48
2022-11-24T03:49:22.516Z,71.16
2022-11-24T03:51:50.684Z,71.70
2022-11-24T03:54:18.002Z,71.11
2022-11-24T03:56:45.360Z,70.50
2022-11-24T03:59:12.728Z,71.50
2022-11-24T04:01:40.203Z,72.02
2022-11-24T04:04:12.216Z,73.41
2022-11-24T04:06:41.350Z,73.32
2022-11-24T04:09:09.837Z,73.93
2022-11-24T04:11:56.373Z,74.02
2022-11-24T04:14:23.780Z,73.93
2022-11-24T04:16:51.300Z,72.67
2022-11-24T04:19:18.724Z,73.68
2022-11-24T04:21:46.262Z,74.86
2022-11-24T04:24:14.935Z,73.39
2022-11-24T04:26:42.377Z,74.22
2022-11-24T04:29:11.017Z,75.52
2022-11-24T04:31:38.990Z,74.57
2022-11-24T04:34:06.639Z,73.95
2022-11-24T04:36:34.430Z,74.80
2022-11-24T04:39:19.375Z,74.10
2022-11-24T04:41:49.310Z,74.28
2022-11-24T04:44:16.802Z,74.07
2022-11-24T04:46:44.462Z,73.31
2022-11-24T04:49:11.909Z,72.90
2022-11-24T04:51:40.505Z,72.94
2022-11-24T04:54:11.475Z,74.85
2022-11-24T04:56:43.885Z,73.35
2022-11-24T04:59:15.841Z,73.34
2022-11-24T05:02:05.441Z,73.88
2022-11-24T05:04:34.334Z,72.60
2022-11-24T05:07:20.665Z,71.27
2022-11-24T05:10:07.941Z,71.60
2022-11-24T05:12:40.132Z,73.91
2022-11-24T05:15:12.751Z,72.99
2022-11-24T05:17:43.234Z,71.36
2022-11-24T05:20:11.503Z,71.41
2022-11-24T08:46:36.081Z,75.57
2022-11-24T08:49:05.207Z,75.60
2022-11-24T08:51:33.498Z,74.28
2022-11-24T08:54:02.737Z,74.73
2022-11-24T08:56:33.282Z,74.18
2022-11-24T08:59:01.165Z,73.57
2022-11-24T09:01:29.368Z,72.10
2022-11-24T09:03:57.004Z,71.93
2022-11-24T09:06:30.879Z,71.67
2022-11-24T09:08:59.859Z,71.43
2022-11-24T09:11:28.212Z,70.70
2022-11-24T09:13:56.499Z,69.71
2022-11-24T09:16:29.039Z,69.49
2022-11-24T09:19:04.425Z,69.31
2022-11-24T09:21:37.605Z,69.45
2022-11-24T09:24:10.294Z,69.70
2022-11-24T09:26:44.591Z,68.80
2022-11-24T09:29:14.823Z,70.41
2022-11-24T09:31:42.204Z,68.86
2022-11-24T09:34:15.778Z,68.75
2022-11-24T09:36:43.559Z,69.70
2022-11-24T09:39:12.205Z,69.33
2022-11-24T09:41:54.682Z,68.48
2022-11-24T09:45:11.131Z,67.81
2022-11-24T09:48:12.426Z,67.85
2022-11-24T09:50:40.364Z,67.09
2022-11-24T09:53:41.144Z,67.39
2022-11-24T09:56:37.277Z,67.92
2022-11-24T09:59:24.224Z,67.53
2022-11-24T10:01:52.616Z,67.37
2022-11-24T10:04:39.842Z,67.72
2022-11-24T10:07:38.164Z,67.61
2022-11-24T10:10:25.621Z,67.38
2022-11-24T10:13:51.027Z,67.86
2022-11-24T10:17:07.681Z,68.08
2022-11-24T10:20:34.251Z,67.74
2022-11-24T10:24:25.788Z,66.62
2022-11-24T10:27:24.610Z,66.59
2022-11-24T10:29:53.392Z,66.26
2022-11-24T10:32:40.096Z,66.53
2022-11-24T10:35:45.921Z,65.58
2022-11-24T10:38:35.272Z,65.62
2022-11-24T10:41:10.642Z,65.46
2022-11-24T10:43:41.055Z,65.64
2022-11-24T10:46:28.435Z,64.98
2022-11-24T10:49:06.135Z,63.23
2022-11-24T10:52:16.185Z,61.96
2022-11-24T10:55:02.535Z,60.32
2022-11-24T10:57:38.878Z,59.58
2022-11-24T11:00:18.509Z,60.33
2022-11-24T11:02:50.034Z,60.54
2022-11-24T11:05:54.377Z,59.04
2022-11-24T11:08:32.356Z,57.93
2022-11-24T11:11:30.152Z,58.50
2022-11-24T11:14:12.925Z,60.96
2022-11-24T11:16:51.792Z,60.80
2022-11-24T11:19:54.313Z,57.29
2022-11-24T11:22:32.006Z,57.12
2022-11-24T11:25:27.047Z,56.70
2022-11-24T11:28:18.346Z,58.53
2022-11-24T11:31:22.263Z,57.81
2022-11-24T11:34:23.753Z,58.38
2022-11-24T11:36:56.327Z,59.20
2022-11-24T11:39:50.265Z,58.88
2022-11-24T11:45:43.688Z,59.97
2022-11-24T11:48:43.071Z,58.96
2022-11-24T11:52:03.755Z,57.39
2022-11-24T11:55:26.232Z,54.75
2022-11-24T11:58:27.044Z,53.48
2022-11-24T12:02:04.158Z,53.06
2022-11-24T12:05:05.204Z,52.91
2022-11-24T12:09:11.524Z,52.34
2022-11-24T12:11:59.504Z,51.16
2022-11-24T12:14:44.832Z,50.91
2022-11-24T12:17:46.243Z,50.37
2022-11-24T12:20:59.230Z,50.84
2022-11-24T12:24:04.372Z,51.68
2022-11-24T12:26:43.912Z,50.89
2022-11-24T12:29:51.801Z,51.85
2022-11-24T12:33:02.217Z,50.26
2022-11-24T12:36:26.768Z,52.30
2022-11-24T12:39:45.613Z,52.11
2022-11-24T12:42:46.770Z,53.28
2022-11-24T12:45:34.662Z,53.25
2022-11-24T12:48:35.916Z,53.56
2022-11-24T12:51:12.953Z,54.65
2022-11-24T12:53:41.892Z,54.70
2022-11-24T12:56:17.696Z,55.25
2022-11-24T12:59:24.154Z,56.32
2022-11-24T13:02:37.718Z,56.26
2022-11-24T13:05:32.937Z,56.24
2022-11-24T13:08:05.127Z,56.42
2022-11-24T13:14:14.895Z,57.09
2022-11-24T13:17:28.789Z,56.75
2022-11-24T13:19:51.247Z,57.08
2022-11-24T13:22:26.512Z,57.84
2022-11-24T13:25:34.999Z,56.79
2022-11-24T13:28:06.777Z,57.02
2022-11-24T13:30:34.913Z,57.89
2022-11-24T13:33:16.579Z,56.32
2022-11-24T13:36:02.560Z,56.11
2022-11-24T13:38:56.668Z,57.60
2022-11-24T13:41:33.039Z,56.51
2022-11-24T13:44:15.302Z,56.71
2022-11-24T13:47:24.567Z,57.18
2022-11-24T13:49:51.908Z,57.63
2022-11-24T13:52:42.538Z,57.43
2022-11-24T13:55:12.891Z,58.16
2022-11-24T13:57:56.285Z,58.29
2022-11-24T14:01:03.930Z,57.77
2022-11-24T14:04:28.060Z,58.45
2022-11-24T14:07:07.895Z,58.20
2022-11-24T14:09:50.648Z,57.68
2022-11-24T14:12:26.069Z,57.70
2022-11-24T14:15:12.861Z,57.51
2022-11-24T14:17:40.393Z,57.17
2022-11-24T14:20:26.370Z,57.17
2022-11-24T14:22:54.566Z,58.12
2022-11-24T14:25:32.456Z,58.13
2022-11-24T14:28:13.662Z,58.40
2022-11-24T14:30:41.073Z,57.21
2022-11-24T14:33:13.433Z,57.09
2022-11-24T14:35:50.911Z,56.56
2022-11-24T14:38:18.290Z,55.70
2022-11-24T14:40:53.926Z,56.70
2022-11-24T14:43:32.562Z,55.55
2022-11-24T14:46:09.418Z,55.65
2022-11-24T14:48:52.995Z,56.34
2022-11-24T14:51:42.705Z,56.11
2022-11-24T14:54:21.295Z,55.98
2022-11-24T14:57:06.269Z,56.54
2022-11-24T14:59:38.121Z,56.90
2022-11-24T15:02:53.795Z,56.87
2022-11-24T15:05:25.259Z,57.59
2022-11-24T15:08:03.330Z,57.84
2022-11-24T15:10:38.481Z,58.19
2022-11-24T15:13:21.655Z,58.61
2022-11-24T15:16:04.844Z,59.73
2022-11-24T15:18:56.507Z,58.87
2022-11-24T15:21:37.089Z,58.96
2022-11-24T15:24:17.546Z,59.64
2022-11-24T15:26:46.273Z,59.19
2022-11-24T15:29:14.079Z,58.67
2022-11-24T15:31:46.477Z,58.99
2022-11-24T15:34:17.218Z,59.16
2022-11-24T15:36:45.597Z,59.26
2022-11-24T15:39:16.046Z,58.93
2022-11-24T15:41:44.411Z,59.48
2022-11-24T15:44:12.247Z,60.64
2022-11-24T15:46:40.187Z,61.05
2022-11-24T15:49:08.010Z,60.83
2022-11-24T15:51:45.792Z,60.93
2022-11-24T15:54:17.725Z,61.91
2022-11-24T15:56:45.755Z,61.17
2022-11-24T15:59:20.694Z,62.20
2022-11-24T16:01:55.818Z,62.14
2022-11-24T16:04:27.335Z,61.47
2022-11-24T16:07:04.033Z,62.38
2022-11-24T16:09:32.258Z,61.47
2022-11-24T16:12:00.947Z,61.96
2022-11-24T16:14:37.068Z,62.18
2022-11-24T16:17:13.005Z,62.60
2022-11-24T16:19:48.496Z,62.68
2022-11-24T16:22:21.338Z,63.46
2022-11-24T16:24:53.361Z,63.11
2022-11-24T16:27:23.002Z,63.66
2022-11-24T16:29:54.373Z,62.70
2022-11-24T16:32:23.579Z,62.91
2022-11-24T16:34:57.656Z,63.45
2022-11-24T16:37:28.085Z,63.85
2022-11-24T16:39:58.879Z,63.53
2022-11-24T16:42:27.210Z,64.50
2022-11-24T16:44:55.180Z,64.05
2022-11-24T16:47:22.758Z,63.98
2022-11-24T16:49:50.502Z,63.97
2022-11-24T16:52:18.328Z,64.92
2022-11-24T16:54:48.700Z,65.28
2022-11-24T16:57:16.351Z,64.82
2022-11-24T16:59:45.878Z,65.17
2022-11-24T17:02:13.907Z,65.50
2022-11-24T17:04:41.348Z,65.88
2022-11-24T17:07:08.931Z,65.46
2022-11-24T17:09:40.578Z,64.52
2022-11-24T17:12:08.359Z,64.74
2022-11-24T17:14:36.025Z,64.63
2022-11-24T17:17:06.783Z,64.47
2022-11-24T17:19:34.318Z,65.01
2022-11-24T17:22:01.662Z,65.43
2022-11-24T17:24:29.036Z,64.93
2022-11-24T17:26:56.496Z,65.29
2022-11-24T17:29:24.461Z,65.26
2022-11-24T17:31:51.966Z,66.30
2022-11-24T17:34:19.465Z,66.27
2022-11-24T17:36:46.868Z,66.00
2022-11-24T17:39:14.243Z,65.75
2022-11-24T17:41:41.708Z,65.59
2022-11-24T17:44:10.665Z,65.33
2022-11-24T17:46:39.182Z,65.77
2022-11-24T17:49:08.348Z,65.42
2022-11-24T17:51:35.887Z,65.81
2022-11-24T17:54:31.216Z,66.16
2022-11-24T17:56:50.868Z,65.88
2022-11-24T17:59:18.839Z,66.23
2022-11-24T18:01:46.241Z,66.20
2022-11-24T18:04:13.858Z,67.17
2022-11-24T18:06:41.363Z,67.55
2022-11-24T18:09:08.754Z,66.88
2022-11-24T18:11:36.285Z,66.82
2022-11-24T18:14:04.819Z,67.64
2022-11-24T18:16:34.759Z,67.34
2022-11-24T18:19:10.681Z,66.86
2022-11-24T18:21:44.731Z,67.89
2022-11-24T18:24:13.779Z,67.88
2022-11-24T18:26:43.101Z,67.32
2022-11-24T18:29:11.930Z,67.30
2022-11-24T18:31:39.898Z,67.21
2022-11-24T18:34:07.972Z,67.97
2022-11-24T18:36:36.762Z,67.64
2022-11-24T18:39:09.060Z,67.22
2022-11-24T18:41:36.574Z,67.68
2022-11-24T18:44:07.924Z,67.69
2022-11-24T18:46:35.943Z,68.13
2022-11-24T18:49:03.571Z,68.23
2022-11-24T18:51:31.057Z,68.75
2022-11-24T18:53:58.448Z,69.20
2022-11-24T18:56:27.030Z,69.74
2022-11-24T18:58:56.850Z,69.59
2022-11-24T19:01:28.908Z,70.13
2022-11-24T19:04:00.583Z,70.03
2022-11-24T19:06:39.090Z,69.99
2022-11-24T19:09:22.646Z,69.89
2022-11-24T19:11:50.299Z,69.87
2022-11-24T19:14:19.667Z,69.44
2022-11-24T19:16:48.198Z,69.62
2022-11-24T19:19:17.107Z,69.43
2022-11-24T19:21:44.939Z,69.25
2022-11-24T19:24:15.570Z,69.57
2022-11-24T19:26:43.009Z,69.61
2022-11-24T19:29:10.569Z,69.31
2022-11-24T19:31:39.628Z,69.38
2022-11-24T19:34:08.040Z,69.34
2022-11-24T19:36:36.130Z,68.96
2022-11-24T19:39:05.078Z,69.33
2022-11-24T19:41:34.096Z,69.52
2022-11-24T19:44:01.669Z,69.57
2022-11-24T19:46:30.220Z,69.45
2022-11-24T19:49:02.099Z,69.52
2022-11-24T19:51:38.494Z,69.67
2022-11-24T19:54:10.171Z,69.31
2022-11-24T19:56:38.008Z,69.83
2022-11-24T19:59:06.690Z,70.51
2022-11-24T20:01:40.481Z,70.00
2022-11-24T20:04:14.864Z,69.70
2022-11-24T20:06:47.819Z,69.67
2022-11-24T20:09:18.518Z,70.39
2022-11-24T20:11:47.033Z,69.76
2022-11-24T20:14:20.387Z,69.74
2022-11-24T20:16:48.177Z,70.00
2022-11-24T20:19:17.902Z,69.83
2022-11-24T20:21:47.754Z,69.87
2022-11-24T20:24:23.304Z,70.07
2022-11-24T20:26:58.488Z,70.10
2022-11-24T20:29:28.246Z,70.03
2022-11-24T20:31:57.155Z,70.07
2022-11-24T20:34:26.235Z,69.93
2022-11-24T20:36:53.726Z,70.80
2022-11-24T20:39:27.037Z,70.46
2022-11-24T20:41:56.043Z,70.35
2022-11-24T20:44:26.555Z,70.24
2022-11-24T20:46:57.053Z,70.41
2022-11-24T20:49:25.070Z,70.24
2022-11-24T20:51:57.203Z,70.58
2022-11-24T20:54:24.713Z,70.15
2022-11-24T20:56:52.328Z,70.67
2022-11-24T20:59:24.943Z,70.84
2022-11-24T21:01:55.458Z,71.53
2022-11-24T21:04:26.385Z,71.18
2022-11-24T21:06:55.463Z,70.64
2022-11-24T21:09:22.923Z,70.84
2022-11-24T21:11:50.447Z,71.25
2022-11-24T21:14:17.912Z,71.21
2022-11-24T21:16:45.435Z,70.81
2022-11-24T21:19:18.603Z,71.07
2022-11-24T21:21:48.720Z,71.08
2022-11-24T21:24:21.993Z,70.85
2022-11-24T21:26:51.744Z,70.87
2022-11-24T21:29:22.151Z,70.95
2022-11-24T21:31:49.631Z,70.70
2022-11-24T21:34:19.355Z,71.08
2022-11-24T21:36:47.681Z,70.80
2022-11-24T21:39:16.348Z,70.56
2022-11-24T21:41:43.998Z,70.05
2022-11-24T21:44:13.618Z,70.13
2022-11-24T21:46:48.218Z,70.38
2022-11-24T21:49:19.813Z,70.28
2022-11-24T21:51:47.589Z,70.52
2022-11-24T21:54:14.945Z,71.00
2022-11-24T21:56:42.312Z,71.36
2022-11-24T21:59:09.703Z,71.49
2022-11-24T22:01:37.097Z,71.24
2022-11-24T22:04:04.912Z,71.01
2022-11-24T22:06:33.242Z,71.00
2022-11-24T22:09:00.906Z,70.99
2022-11-24T22:11:28.319Z,71.09
2022-11-24T22:13:55.806Z,71.00
2022-11-24T22:16:25.616Z,70.68
2022-11-24T22:18:53.045Z,71.03
2022-11-24T22:21:30.764Z,71.27
2022-11-24T22:23:58.329Z,71.00
2022-11-24T22:26:27.362Z,70.94
2022-11-24T22:28:57.437Z,70.93
2022-11-24T22:31:31.927Z,70.90
2022-11-24T22:34:00.877Z,71.25
2022-11-24T22:36:30.797Z,71.37
2022-11-24T22:39:04.867Z,71.45
2022-11-24T22:41:35.383Z,71.47
2022-11-24T22:44:03.635Z,70.84
2022-11-24T22:46:32.539Z,70.84
2022-11-24T22:49:01.808Z,70.39
2022-11-24T22:51:34.719Z,71.00
2022-11-24T22:54:05.570Z,70.89
2022-11-24T22:56:34.384Z,70.67
2022-11-24T22:59:03.267Z,70.64
2022-11-24T23:01:35.966Z,70.83
2022-11-24T23:04:04.071Z,70.48
2022-11-24T23:06:33.788Z,70.51
2022-11-24T23:09:03.453Z,70.84
2022-11-24T23:11:38.824Z,70.36
2022-11-24T23:14:15.265Z,70.47
2022-11-24T23:16:43.602Z,70.79
2022-11-24T23:19:11.146Z,70.96
2022-11-24T23:21:39.309Z,71.00
2022-11-24T23:24:08.606Z,71.19
2022-11-24T23:26:41.232Z,71.05
2022-11-24T23:29:11.647Z,71.89
2022-11-24T23:31:42.050Z,71.26
2022-11-24T23:34:10.139Z,71.19
2022-11-24T23:36:37.583Z,71.55
2022-11-24T23:39:13.347Z,70.82
2022-11-24T23:41:41.396Z,71.18
2022-11-24T23:44:09.118Z,71.97
2022-11-24T23:46:37.054Z,71.86
2022-11-24T23:49:04.397Z,71.89
2022-11-24T23:51:33.889Z,71.80
2022-11-24T23:54:01.759Z,72.24
2022-11-24T23:56:33.140Z,72.47
2022-11-24T23:59:03.733Z,72.08
